createdAt,value
2019-02-28T00:01:28.760Z,684.77
2019-02-28T00:06:33.792Z,671.73
2019-02-28T00:11:39.506Z,685.43
2019-02-28T00:16:45.537Z,700.53
2019-02-28T00:21:50.625Z,781.00
2019-02-28T00:26:55.683Z,768.50
2019-02-28T00:32:00.701Z,776.43
2019-02-28T00:37:05.736Z,767.40
2019-02-28T00:42:10.795Z,725.80
2019-02-28T00:47:16.509Z,686.27
2019-02-28T00:52:22.249Z,661.33
2019-02-28T00:57:27.370Z,617.20
2019-02-28T01:02:32.400Z,578.23
2019-02-28T01:07:37.643Z,624.60
2019-02-28T01:12:42.697Z,579.67
2019-02-28T01:17:47.888Z,562.93
2019-02-28T01:22:52.913Z,517.97
2019-02-28T01:27:58.031Z,548.63
2019-02-28T01:33:03.063Z,573.43
2019-02-28T01:38:09.878Z,499.47
2019-02-28T01:43:14.933Z,410.97
2019-02-28T01:48:22.586Z,421.87
2019-02-28T01:53:26.635Z,391.50
2019-02-28T01:58:31.672Z,440.20
2019-02-28T02:03:36.713Z,403.23
2019-02-28T02:08:41.782Z,429.70
2019-02-28T02:13:46.891Z,454.30
2019-02-28T02:18:52.204Z,425.50
2019-02-28T02:23:57.219Z,304.00
2019-02-28T02:29:02.314Z,301.23
2019-02-28T02:34:07.340Z,423.73
2019-02-28T02:39:16.364Z,589.77
2019-02-28T02:44:19.161Z,622.40
2019-02-28T02:49:25.297Z,549.97
2019-02-28T02:54:30.358Z,559.93
2019-02-28T02:59:39.096Z,528.93
2019-02-28T03:04:42.401Z,580.13
2019-02-28T03:09:47.706Z,611.97
2019-02-28T03:14:52.761Z,641.93
2019-02-28T03:19:58.056Z,616.23
2019-02-28T03:25:03.305Z,550.87
2019-02-28T03:30:10.794Z,544.27
2019-02-28T03:35:15.866Z,409.93
2019-02-28T03:40:20.974Z,474.70
2019-02-28T03:45:33.821Z,585.37
2019-02-28T03:50:32.649Z,583.57
2019-02-28T03:55:40.875Z,555.73
2019-02-28T04:00:45.553Z,552.70
2019-02-28T04:05:50.569Z,475.30
2019-02-28T04:10:55.921Z,456.60
2019-02-28T04:16:08.690Z,484.73
2019-02-28T04:21:10.315Z,476.50
2019-02-28T04:26:14.571Z,460.93
2019-02-28T04:31:20.358Z,445.40
2019-02-28T04:36:26.038Z,480.33
2019-02-28T04:41:32.963Z,562.87
2019-02-28T04:46:37.716Z,528.17
2019-02-28T04:51:42.804Z,547.87
2019-02-28T04:56:50.701Z,539.00
2019-02-28T05:01:55.660Z,483.73
2019-02-28T05:07:00.715Z,453.23
2019-02-28T05:12:06.023Z,385.43
2019-02-28T05:17:11.301Z,410.20
2019-02-28T05:22:16.346Z,353.80
2019-02-28T05:27:21.399Z,499.37
2019-02-28T05:32:26.432Z,598.43
2019-02-28T05:37:31.449Z,622.43
2019-02-28T05:42:38.400Z,471.33
2019-02-28T05:47:46.927Z,577.40
2019-02-28T05:52:50.134Z,569.57
2019-02-28T05:57:55.300Z,581.83
2019-02-28T06:03:02.519Z,593.97
2019-02-28T06:08:07.109Z,644.77
2019-02-28T06:13:12.141Z,666.37
2019-02-28T06:18:17.205Z,655.47
2019-02-28T06:23:22.247Z,614.90
2019-02-28T06:28:27.616Z,633.87
2019-02-28T06:33:34.450Z,659.43
2019-02-28T06:38:39.795Z,643.53
2019-02-28T06:43:44.971Z,696.07
2019-02-28T06:48:50.133Z,733.97
2019-02-28T06:53:55.385Z,741.27
2019-02-28T06:59:00.592Z,737.83
2019-02-28T07:04:05.621Z,765.17
2019-02-28T07:09:10.853Z,782.00
2019-02-28T07:14:15.902Z,781.27
2019-02-28T07:19:21.271Z,767.17
2019-02-28T07:24:26.631Z,727.83
2019-02-28T07:29:32.147Z,764.50
2019-02-28T07:34:37.293Z,788.83
2019-02-28T07:39:42.528Z,816.97
2019-02-28T07:44:49.347Z,829.10
2019-02-28T07:49:54.478Z,807.47
2019-02-28T07:54:59.508Z,813.20
2019-02-28T08:00:05.877Z,827.83
2019-02-28T08:05:11.542Z,811.63
2019-02-28T08:10:18.500Z,856.07
2019-02-28T08:15:23.588Z,907.20
2019-02-28T08:20:30.654Z,898.77
2019-02-28T08:25:35.338Z,903.50
2019-02-28T08:30:40.385Z,918.13
2019-02-28T08:35:45.454Z,904.37
2019-02-28T08:40:51.605Z,835.13
2019-02-28T08:45:56.888Z,865.43
2019-02-28T08:51:02.039Z,798.13
2019-02-28T08:56:07.118Z,735.93
2019-02-28T09:01:12.120Z,782.97
2019-02-28T09:06:17.224Z,783.10
2019-02-28T09:11:22.250Z,787.97
2019-02-28T09:16:27.275Z,807.47
2019-02-28T09:21:32.357Z,803.80
2019-02-28T09:26:39.236Z,813.87
2019-02-28T09:31:44.288Z,831.97
2019-02-28T09:36:52.403Z,828.97
2019-02-28T09:41:56.070Z,739.27
2019-02-28T09:47:01.337Z,747.93
2019-02-28T09:52:07.283Z,747.17
2019-02-28T09:57:15.417Z,753.73
2019-02-28T10:02:19.248Z,766.37
2019-02-28T10:07:27.123Z,784.87
2019-02-28T10:12:31.520Z,845.77
2019-02-28T10:17:36.581Z,889.03
2019-02-28T10:22:44.389Z,956.50
2019-02-28T10:27:48.304Z,1005.57
2019-02-28T10:32:53.450Z,942.60
2019-02-28T10:37:58.937Z,924.90
2019-02-28T10:43:04.213Z,955.23
2019-02-28T10:48:09.244Z,920.57
2019-02-28T10:53:14.408Z,985.03
2019-02-28T10:58:19.411Z,989.17
2019-02-28T11:03:24.489Z,894.17
2019-02-28T11:08:29.568Z,833.37
2019-02-28T11:13:34.758Z,832.30
2019-02-28T11:18:41.908Z,770.13
2019-02-28T11:23:50.064Z,814.73
2019-02-28T11:28:55.239Z,872.00
2019-02-28T11:34:01.969Z,836.90
2019-02-28T11:39:07.796Z,838.27
2019-02-28T11:44:14.826Z,931.07
2019-02-28T11:49:19.564Z,1001.27
2019-02-28T11:54:24.591Z,991.40
2019-02-28T11:59:29.621Z,986.30
2019-02-28T12:04:37.403Z,990.13
2019-02-28T12:09:41.448Z,986.37
2019-02-28T12:14:47.588Z,995.93
2019-02-28T12:19:52.674Z,977.40
2019-02-28T12:24:57.735Z,960.03
2019-02-28T12:30:02.771Z,971.73
2019-02-28T12:35:08.305Z,958.03
2019-02-28T12:40:15.953Z,966.77
2019-02-28T12:45:26.987Z,962.07
2019-02-28T12:50:32.023Z,960.37
2019-02-28T12:55:38.902Z,956.77
2019-02-28T13:00:44.000Z,961.93
2019-02-28T13:05:49.579Z,964.23
2019-02-28T13:10:54.800Z,925.90
2019-02-28T13:15:59.874Z,932.83
2019-02-28T13:21:06.139Z,917.77
2019-02-28T13:26:12.131Z,894.77
2019-02-28T13:31:17.365Z,875.30
2019-02-28T13:36:22.854Z,901.27
2019-02-28T13:41:28.003Z,878.80
2019-02-28T13:46:34.380Z,890.60
2019-02-28T13:51:42.064Z,885.37
2019-02-28T13:56:46.209Z,851.63
2019-02-28T14:01:52.123Z,774.13
2019-02-28T14:06:58.084Z,795.83
2019-02-28T14:12:03.625Z,829.67
2019-02-28T14:17:08.820Z,800.23
2019-02-28T14:22:14.043Z,795.13
2019-02-28T14:27:21.652Z,781.60
2019-02-28T14:32:26.119Z,791.53
2019-02-28T14:37:31.480Z,823.23
2019-02-28T14:42:36.693Z,850.13
2019-02-28T14:47:41.893Z,821.03
2019-02-28T14:52:46.948Z,791.83
2019-02-28T14:57:52.078Z,807.53
2019-02-28T15:02:59.390Z,811.77
2019-02-28T15:08:04.580Z,805.63
2019-02-28T15:13:09.865Z,820.83
2019-02-28T15:18:14.977Z,882.40
2019-02-28T15:23:20.110Z,857.80
2019-02-28T15:28:25.167Z,884.77
2019-02-28T15:33:30.672Z,851.27
2019-02-28T15:38:36.737Z,867.53
2019-02-28T15:43:41.787Z,839.57
2019-02-28T15:48:47.154Z,877.40
2019-02-28T15:53:52.381Z,866.13
2019-02-28T15:58:57.459Z,888.03
2019-02-28T16:04:02.614Z,900.73
2019-02-28T16:09:11.438Z,909.67
2019-02-28T16:14:16.714Z,934.23
2019-02-28T16:19:22.794Z,933.27
2019-02-28T16:24:27.896Z,927.27
2019-02-28T16:29:33.106Z,936.70
2019-02-28T16:34:38.759Z,938.07
2019-02-28T16:39:45.055Z,949.50
2019-02-28T16:44:50.108Z,959.93
2019-02-28T16:49:55.337Z,954.93
2019-02-28T16:55:02.798Z,973.67
2019-02-28T17:00:08.632Z,962.00
2019-02-28T17:05:16.011Z,967.13
2019-02-28T17:10:25.164Z,978.83
2019-02-28T17:15:55.413Z,962.77
2019-02-28T17:20:59.584Z,940.27
2019-02-28T17:26:04.613Z,937.10
2019-02-28T17:31:27.173Z,939.10
2019-02-28T17:36:32.533Z,953.57
2019-02-28T17:41:37.954Z,942.47
2019-02-28T17:46:43.590Z,957.33
2019-02-28T17:51:59.487Z,963.00
2019-02-28T17:57:18.367Z,949.43
2019-02-28T18:03:06.516Z,945.20
2019-02-28T18:08:37.579Z,957.00
2019-02-28T18:14:03.391Z,942.63
2019-02-28T18:19:41.041Z,940.70
2019-02-28T18:25:33.187Z,953.57
2019-02-28T18:31:10.659Z,947.57
2019-02-28T18:36:18.553Z,942.37
2019-02-28T18:41:23.915Z,964.87
2019-02-28T18:46:30.779Z,959.20
2019-02-28T18:51:35.562Z,939.63
2019-02-28T18:56:40.611Z,961.93
2019-02-28T19:01:45.659Z,954.00
2019-02-28T19:06:51.024Z,922.63
2019-02-28T19:11:59.728Z,1015.23
2019-02-28T19:17:05.434Z,1075.37
2019-02-28T19:22:12.305Z,1003.50
2019-02-28T19:27:21.317Z,1006.83
2019-02-28T19:32:26.631Z,1062.60
2019-02-28T19:37:31.970Z,1070.03
2019-02-28T19:42:37.023Z,1083.80
2019-02-28T19:47:43.094Z,1069.27
2019-02-28T19:52:48.182Z,1054.07
2019-02-28T19:57:53.201Z,1032.10
2019-02-28T20:02:58.272Z,1034.17
2019-02-28T20:08:03.522Z,1000.73
2019-02-28T20:13:08.552Z,1002.53
2019-02-28T20:18:13.730Z,994.50
2019-02-28T20:23:19.014Z,976.60
2019-02-28T20:28:24.075Z,961.27
2019-02-28T20:33:29.198Z,992.27
2019-02-28T20:38:34.277Z,959.63
2019-02-28T20:43:39.335Z,1000.07
2019-02-28T20:48:44.692Z,1047.30
2019-02-28T20:53:49.685Z,1034.27
2019-02-28T20:58:54.800Z,1032.00
2019-02-28T21:04:00.158Z,1010.47
2019-02-28T21:09:07.819Z,1014.00
2019-02-28T21:14:12.905Z,992.90
2019-02-28T21:19:18.190Z,969.10
2019-02-28T21:24:23.445Z,961.93
2019-02-28T21:29:28.677Z,947.33
2019-02-28T21:34:34.176Z,945.63
2019-02-28T21:39:41.458Z,975.53
2019-02-28T21:44:47.591Z,980.93
2019-02-28T21:49:52.993Z,957.80
2019-02-28T21:54:58.033Z,974.17
2019-02-28T22:00:03.094Z,957.57
2019-02-28T22:05:11.494Z,945.83
2019-02-28T22:10:16.919Z,968.20
2019-02-28T22:15:22.276Z,954.50
2019-02-28T22:20:27.636Z,943.87
2019-02-28T22:25:32.694Z,940.40
2019-02-28T22:31:02.889Z,938.67
2019-02-28T22:36:10.010Z,932.77
2019-02-28T22:41:15.192Z,948.63
2019-02-28T22:46:20.246Z,957.50
2019-02-28T22:51:25.300Z,959.07
2019-02-28T22:56:31.311Z,962.53
2019-02-28T23:01:38.454Z,946.97
2019-02-28T23:06:43.841Z,936.37
2019-02-28T23:11:49.203Z,926.53
2019-02-28T23:16:54.254Z,930.53
2019-02-28T23:21:59.493Z,946.80
2019-02-28T23:27:20.752Z,928.77
2019-02-28T23:32:38.196Z,936.17
2019-02-28T23:37:43.935Z,936.30
2019-02-28T23:42:50.840Z,928.67
2019-02-28T23:47:56.216Z,936.63
2019-02-28T23:53:01.274Z,932.73
2019-02-28T23:58:07.412Z,949.50
